Ana Sayfa
METAR-TAF:

METAR-TAF

Havaalanları :

Durango, Meksika

Enlem: 24-08N, Boylam: 104-32W, yükseklik: 1857 m

Güncel hava durumu gözlemi

Rapor saat 16:45 UTC de 24 dakika önce yapıldı.
Rüzgar güney/güneybatıdan 3 kt
Sıcaklık 13°C
Nem 44%
Basınç 1028 hPa
Görüş mesafesi: 19.3 km
Açık gökyüzü

METAR: MMDO 141645Z 20003KT 12SM SKC 13/01 A3035

Saat: 11:09 (17:09 UTC)

Tahmin

Rapor saat 04:29 UTC de 12 saat ve 40 dakika önce yapıldı.
Ayın 14'si saat 06 UTC'den ayın 15'si saat 06 UTC'ye kadar geçerli Tahmin
Rüzgar kuzeydan kt
Görüş mesafesi: 10 km
Açık gökyüzü
Ayın 14'si saat 1800 UTC'den
Rüzgar kuzeybatıdan 10 kt
Görüş mesafesi: 10 km
3000 ft yükseklikte parçalı çok bulutlu
8000 ft yükseklikte parçalı çok bulutlu
Ayın 15'si saat 0500 UTC'den
Rüzgar batı/kuzeybatıdan 5 kt
Görüş mesafesi: 10 km
Açık gökyüzü

TAF: MMDO 140429Z 1406/1506 00000KT P6SM SKC FM141800 310010KT P6SM BKN030 BKN080 FM150500 30005KT P6SM SKC

4.000'den fazla havaalanı için hava durumu gözlemleri ve tahminleri (METAR ve TAF raporları).

Kullanılabilir istasyonlar harita üzerinde sarı ve kırmızı noktalarla gösterilir.

İstasyonun adını görmek için fareyi noktanın üzerinde gezdirin.

Sonrasında hava gözlem ve tahminlerini görmek için tıklayın.

Haritayı değiştirmek için: yaklaştırmak için siyah artı işaretli yeşil düğmeye ve uzaklaştırmak için de eksi işaretli düğmeye hızla tıklayın; bitişik haritalar için yeşil okları kullanın.


METAR-TAF: